Time;durP1;ratioP1;P1;durP2;ratioP2;P2;SDS_P1;SDS_P2;PMS_P1;PMS_P2;Temp;Humidity;BMP_temperature;BMP_pressure;BME280_temperature;BME280_humidity;BME280_pressure;Samples;Min_cycle;Max_cycle;Signal;HPM_P1;HPM_P2
2021/05/31 00:00:57;;;;;;;14.73;11.87;;;;;;;;;;5072238;28;20205;-78
2021/05/31 00:03:23;;;;;;;18.43;13.40;;;;;;;;;;5060301;28;20543;-76
2021/05/31 00:05:49;;;;;;;14.27;12.45;;;;;;;;;;5061084;28;20956;-78
2021/05/31 00:08:15;;;;;;;15.40;13.32;;;;;;;;;;5064102;28;20279;-79
2021/05/31 00:10:41;;;;;;;14.93;13.23;;;;;;;;;;5061388;28;20728;-76
2021/05/31 00:13:07;;;;;;;15.10;13.18;;;;;;;;;;5049150;28;20181;-77
2021/05/31 00:15:33;;;;;;;17.10;13.52;;;;;;;;;;5059689;28;20184;-81
2021/05/31 00:18:00;;;;;;;17.13;13.60;;;;;;;;;;5051611;28;20246;-78
2021/05/31 00:20:26;;;;;;;15.57;12.10;;;;;;;;;;5060378;28;20205;-77
2021/05/31 00:22:52;;;;;;;15.37;12.87;;;;;;;;;;5050301;28;20203;-78
2021/05/31 00:25:18;;;;;;;15.23;13.47;;;;;;;;;;5060634;28;20506;-78
2021/05/31 00:27:44;;;;;;;15.80;13.32;;;;;;;;;;5050583;28;20773;-78
2021/05/31 00:30:12;;;;;;;18.85;13.75;;;;;;;;;;5059025;28;20217;-81
2021/05/31 00:32:38;;;;;;;16.83;13.98;;;;;;;;;;5050252;28;20200;-77
2021/05/31 00:35:05;;;;;;;19.75;14.70;;;;;;;;;;5057129;28;20239;-77
2021/05/31 00:37:31;;;;;;;16.65;13.10;;;;;;;;;;5053402;28;20218;-79
2021/05/31 00:39:57;;;;;;;16.45;13.40;;;;;;;;;;5050238;28;20566;-77
2021/05/31 00:42:23;;;;;;;18.52;14.60;;;;;;;;;;5051929;28;20550;-77
2021/05/31 00:44:49;;;;;;;15.57;13.60;;;;;;;;;;5050069;28;20177;-77
2021/05/31 00:47:17;;;;;;;14.88;13.32;;;;;;;;;;5068752;28;20202;-76
2021/05/31 00:49:44;;;;;;;18.63;12.73;;;;;;;;;;5068302;28;20193;-77
2021/05/31 00:52:10;;;;;;;14.55;12.85;;;;;;;;;;5051878;28;20211;-79
2021/05/31 00:54:36;;;;;;;14.48;12.93;;;;;;;;;;5059279;28;20183;-75
2021/05/31 00:57:03;;;;;;;15.85;13.70;;;;;;;;;;5053925;28;20518;-78
2021/05/31 00:59:29;;;;;;;16.70;14.15;;;;;;;;;;5074733;28;20183;-78
2021/05/31 01:01:56;;;;;;;16.13;13.40;;;;;;;;;;5067280;28;20180;-77
2021/05/31 01:04:23;;;;;;;17.50;12.77;;;;;;;;;;5063180;28;20173;-79
2021/05/31 01:07:05;;;;;;;17.15;13.18;;;;;;;;;;5054193;28;20546;-77
2021/05/31 01:09:45;;;;;;;14.85;12.43;;;;;;;;;;5053089;28;20227;-79
2021/05/31 01:12:14;;;;;;;17.77;13.05;;;;;;;;;;5053500;28;20287;-80
2021/05/31 01:14:55;;;;;;;15.88;13.55;;;;;;;;;;5053115;28;20177;-79
2021/05/31 01:17:28;;;;;;;13.63;12.23;;;;;;;;;;5057904;28;20164;-80
2021/05/31 01:19:54;;;;;;;14.10;12.60;;;;;;;;;;5055391;28;20236;-76
2021/05/31 01:22:33;;;;;;;16.90;13.90;;;;;;;;;;5053283;28;20638;-77
2021/05/31 01:24:59;;;;;;;15.60;13.07;;;;;;;;;;5053066;28;20410;-80
2021/05/31 01:27:36;;;;;;;15.98;12.57;;;;;;;;;;5054018;28;20181;-79
2021/05/31 01:30:11;;;;;;;15.38;12.27;;;;;;;;;;5053214;28;20731;-78
2021/05/31 01:32:51;;;;;;;17.13;12.68;;;;;;;;;;5061017;28;20180;-77
2021/05/31 01:35:35;;;;;;;15.05;12.40;;;;;;;;;;5074231;28;20223;-78
2021/05/31 01:38:02;;;;;;;14.95;11.52;;;;;;;;;;5053469;28;20179;-79
2021/05/31 01:40:29;;;;;;;13.98;12.07;;;;;;;;;;5055669;28;20592;-76
2021/05/31 01:42:57;;;;;;;14.63;12.18;;;;;;;;;;5052951;28;20184;-81
2021/05/31 01:45:23;;;;;;;14.13;11.80;;;;;;;;;;5052932;28;20185;-76
2021/05/31 01:47:51;;;;;;;13.68;11.57;;;;;;;;;;5052726;28;20192;-76
2021/05/31 01:50:17;;;;;;;14.38;11.27;;;;;;;;;;5068001;28;20562;-79
2021/05/31 01:52:44;;;;;;;12.32;11.02;;;;;;;;;;5061927;28;20169;-79
2021/05/31 01:55:11;;;;;;;13.57;10.10;;;;;;;;;;5053158;28;20177;-78
2021/05/31 01:57:43;;;;;;;12.88;11.35;;;;;;;;;;5052835;28;20526;-78
2021/05/31 02:00:09;;;;;;;13.38;10.85;;;;;;;;;;5055358;28;20247;-80
2021/05/31 02:02:36;;;;;;;11.57;10.35;;;;;;;;;;5057248;28;20487;-78
2021/05/31 02:05:02;;;;;;;13.77;10.65;;;;;;;;;;5056865;28;20188;-79
2021/05/31 02:07:28;;;;;;;13.57;10.68;;;;;;;;;;5056588;28;20188;-75
2021/05/31 02:09:54;;;;;;;11.93;9.30;;;;;;;;;;5058042;28;20204;-76
2021/05/31 02:12:22;;;;;;;12.38;9.77;;;;;;;;;;5078374;28;20776;-80
2021/05/31 02:14:55;;;;;;;13.57;10.73;;;;;;;;;;5080793;28;20230;-78
2021/05/31 02:17:24;;;;;;;12.63;11.20;;;;;;;;;;5070525;28;20581;-78
2021/05/31 02:19:52;;;;;;;12.35;9.95;;;;;;;;;;5066151;28;20196;-77
2021/05/31 02:22:18;;;;;;;11.27;10.18;;;;;;;;;;5055369;28;20188;-77
2021/05/31 02:24:48;;;;;;;11.98;10.30;;;;;;;;;;5065033;28;20256;-75
2021/05/31 02:27:16;;;;;;;12.43;10.38;;;;;;;;;;5056736;28;20189;-78
2021/05/31 02:29:42;;;;;;;11.80;10.55;;;;;;;;;;5082029;28;20210;-75
2021/05/31 02:32:08;;;;;;;12.15;10.07;;;;;;;;;;5063978;28;20274;-79
2021/05/31 02:34:34;;;;;;;10.98;9.82;;;;;;;;;;5072678;28;20572;-77
2021/05/31 02:37:01;;;;;;;11.40;10.20;;;;;;;;;;5080920;28;20176;-79
2021/05/31 02:39:27;;;;;;;11.73;10.52;;;;;;;;;;5058472;28;20184;-76
2021/05/31 02:41:59;;;;;;;11.77;10.57;;;;;;;;;;5056487;28;20192;-73
2021/05/31 02:44:25;;;;;;;11.38;9.90;;;;;;;;;;5056795;28;20188;-77
2021/05/31 02:46:51;;;;;;;12.90;10.35;;;;;;;;;;5085223;28;20176;-77
2021/05/31 02:49:17;;;;;;;12.10;10.68;;;;;;;;;;5061914;28;20187;-81
2021/05/31 02:51:44;;;;;;;11.27;10.23;;;;;;;;;;5064387;28;20570;-77
2021/05/31 02:54:12;;;;;;;11.50;10.40;;;;;;;;;;5058917;28;20185;-77
2021/05/31 02:56:38;;;;;;;11.13;9.93;;;;;;;;;;5071743;28;20188;-78
2021/05/31 02:59:04;;;;;;;12.50;10.90;;;;;;;;;;5061389;28;20169;-77
2021/05/31 03:01:30;;;;;;;12.80;10.40;;;;;;;;;;5093896;28;20196;-74
2021/05/31 03:03:56;;;;;;;12.65;9.68;;;;;;;;;;5075660;28;20431;-75
2021/05/31 03:06:22;;;;;;;13.18;10.70;;;;;;;;;;5087676;28;20553;-79
2021/05/31 03:08:48;;;;;;;11.00;9.90;;;;;;;;;;5067489;28;20185;-75
2021/05/31 03:11:15;;;;;;;12.73;9.75;;;;;;;;;;5054562;28;20692;-79
2021/05/31 03:13:41;;;;;;;10.73;9.63;;;;;;;;;;5063077;28;20258;-79
2021/05/31 03:16:07;;;;;;;11.40;10.20;;;;;;;;;;5070046;28;20426;-78
2021/05/31 03:18:33;;;;;;;11.65;10.25;;;;;;;;;;5064650;28;20180;-78
2021/05/31 03:20:59;;;;;;;11.00;9.73;;;;;;;;;;5081696;28;20200;-77
2021/05/31 03:23:25;;;;;;;11.88;10.00;;;;;;;;;;5075387;28;20184;-81
2021/05/31 03:25:51;;;;;;;14.57;10.35;;;;;;;;;;5063660;28;20627;-78
2021/05/31 03:28:17;;;;;;;12.47;11.00;;;;;;;;;;5065831;28;20185;-79
2021/05/31 03:30:43;;;;;;;15.80;10.63;;;;;;;;;;5079915;28;20528;-77
2021/05/31 03:33:09;;;;;;;12.75;11.40;;;;;;;;;;5076336;28;20958;-80
2021/05/31 03:35:35;;;;;;;13.65;11.18;;;;;;;;;;5081840;28;20206;-74
2021/05/31 03:38:01;;;;;;;12.45;9.50;;;;;;;;;;5064409;28;20191;-77
2021/05/31 03:40:27;;;;;;;10.60;9.50;;;;;;;;;;5062269;28;20662;-79
2021/05/31 03:42:54;;;;;;;15.30;10.45;;;;;;;;;;5057686;28;20420;-80
2021/05/31 03:45:20;;;;;;;11.15;9.65;;;;;;;;;;5084240;28;20258;-78
2021/05/31 03:47:46;;;;;;;11.18;10.07;;;;;;;;;;5069382;28;20199;-79
2021/05/31 03:50:12;;;;;;;10.47;9.30;;;;;;;;;;5060961;28;20196;-77
2021/05/31 03:52:39;;;;;;;11.40;10.20;;;;;;;;;;5056862;28;20909;-78
2021/05/31 03:55:09;;;;;;;12.02;10.60;;;;;;;;;;5061720;28;20169;-78
2021/05/31 03:57:36;;;;;;;11.95;10.32;;;;;;;;;;5056015;28;20165;-77
2021/05/31 04:00:04;;;;;;;12.82;10.73;;;;;;;;;;5061029;28;20189;-80
2021/05/31 04:02:30;;;;;;;12.45;9.68;;;;;;;;;;5071667;28;20180;-77
2021/05/31 04:04:57;;;;;;;11.93;10.73;;;;;;;;;;5068954;28;20183;-77
2021/05/31 04:12:53;;;;;;;15.00;11.10;;;;;;;;;;5078458;28;20215;-82
2021/05/31 04:15:19;;;;;;;15.18;12.50;;;;;;;;;;5070049;28;20176;-82
2021/05/31 04:17:46;;;;;;;17.50;11.85;;;;;;;;;;5061479;28;20177;-77
2021/05/31 04:20:12;;;;;;;12.25;10.90;;;;;;;;;;5077287;28;20542;-79
2021/05/31 04:22:38;;;;;;;13.38;10.40;;;;;;;;;;5066899;28;20175;-81
2021/05/31 04:25:04;;;;;;;14.75;9.77;;;;;;;;;;5066757;28;20195;-79
2021/05/31 04:27:30;;;;;;;11.48;9.90;;;;;;;;;;5054158;28;20253;-81
2021/05/31 04:29:57;;;;;;;11.30;9.98;;;;;;;;;;5064023;28;20201;-81
2021/05/31 04:32:23;;;;;;;10.80;9.70;;;;;;;;;;5066325;28;20196;-80
2021/05/31 04:34:49;;;;;;;9.90;8.90;;;;;;;;;;5073506;28;20172;-81
2021/05/31 04:37:15;;;;;;;9.85;8.55;;;;;;;;;;5067856;28;20506;-78
2021/05/31 04:39:41;;;;;;;10.60;9.50;;;;;;;;;;5056373;28;20215;-79
2021/05/31 04:42:07;;;;;;;12.32;9.15;;;;;;;;;;5064512;28;20169;-79
2021/05/31 04:44:33;;;;;;;10.30;9.27;;;;;;;;;;5057947;28;20172;-80
2021/05/31 04:46:59;;;;;;;11.27;9.23;;;;;;;;;;5073256;28;20274;-78
2021/05/31 04:49:26;;;;;;;10.70;8.70;;;;;;;;;;5057542;28;20578;-78
2021/05/31 04:51:52;;;;;;;11.65;8.82;;;;;;;;;;5063157;28;20280;-82
2021/05/31 04:54:18;;;;;;;11.67;8.93;;;;;;;;;;5075260;28;20280;-82
2021/05/31 04:56:44;;;;;;;10.52;8.45;;;;;;;;;;5053499;28;20457;-78
2021/05/31 04:59:10;;;;;;;11.73;7.90;;;;;;;;;;5053286;28;20192;-80
2021/05/31 05:01:36;;;;;;;12.48;7.78;;;;;;;;;;5073478;28;20227;-79
2021/05/31 05:04:04;;;;;;;8.65;7.75;;;;;;;;;;5056128;28;20201;-81
2021/05/31 05:06:30;;;;;;;8.73;7.80;;;;;;;;;;5060391;28;20235;-78
2021/05/31 05:08:56;;;;;;;7.97;7.18;;;;;;;;;;5080580;28;20640;-76
2021/05/31 05:11:22;;;;;;;9.20;7.45;;;;;;;;;;5062074;28;20209;-75
2021/05/31 05:13:50;;;;;;;8.80;7.60;;;;;;;;;;5059048;28;20243;-77
2021/05/31 05:16:17;;;;;;;10.25;8.23;;;;;;;;;;5087779;28;20244;-80
2021/05/31 05:18:46;;;;;;;10.13;7.97;;;;;;;;;;5059369;28;20229;-80
2021/05/31 05:21:12;;;;;;;7.85;6.88;;;;;;;;;;5058468;28;20208;-79
2021/05/31 05:23:38;;;;;;;10.25;7.63;;;;;;;;;;5063724;28;20660;-77
2021/05/31 05:26:05;;;;;;;9.35;7.38;;;;;;;;;;5058191;28;20189;-78
2021/05/31 05:28:32;;;;;;;9.07;6.90;;;;;;;;;;5063005;28;20215;-80
2021/05/31 05:31:02;;;;;;;7.43;5.97;;;;;;;;;;5078934;28;20196;-78
2021/05/31 05:33:28;;;;;;;8.15;5.18;;;;;;;;;;5091896;28;20259;-80
2021/05/31 05:36:03;;;;;;;7.60;5.75;;;;;;;;;;5073958;28;20525;-79
2021/05/31 05:38:48;;;;;;;5.18;4.68;;;;;;;;;;5063556;28;20177;-79
2021/05/31 05:41:42;;;;;;;7.78;5.25;;;;;;;;;;5055688;28;20204;-79
2021/05/31 05:44:20;;;;;;;9.77;5.70;;;;;;;;;;5063460;28;20186;-79
2021/05/31 05:49:38;;;;;;;7.13;4.32;;;;;;;;;;5062244;28;20186;-79
2021/05/31 05:52:04;;;;;;;7.80;4.80;;;;;;;;;;5068184;28;20204;-81
2021/05/31 05:54:30;;;;;;;6.45;4.47;;;;;;;;;;5071696;28;20466;-82
2021/05/31 05:56:56;;;;;;;5.78;5.00;;;;;;;;;;5058606;28;20173;-77
2021/05/31 05:59:22;;;;;;;4.57;4.18;;;;;;;;;;5076240;28;20179;-81
2021/05/31 06:01:50;;;;;;;5.53;4.40;;;;;;;;;;5072172;28;20185;-79
2021/05/31 06:04:16;;;;;;;6.15;4.80;;;;;;;;;;5062623;28;20426;-75
2021/05/31 06:06:44;;;;;;;5.28;3.75;;;;;;;;;;5063963;28;20298;-78
2021/05/31 06:09:12;;;;;;;5.90;5.30;;;;;;;;;;5056190;28;20181;-75
2021/05/31 06:11:38;;;;;;;8.25;5.40;;;;;;;;;;5053560;28;20662;-80
2021/05/31 06:14:05;;;;;;;5.78;5.15;;;;;;;;;;5070267;28;20179;-81
2021/05/31 06:16:31;;;;;;;5.90;5.30;;;;;;;;;;5061593;28;20247;-83
2021/05/31 06:18:57;;;;;;;8.70;5.37;;;;;;;;;;5070646;28;20424;-79
2021/05/31 06:21:23;;;;;;;10.45;5.88;;;;;;;;;;5071523;28;20488;-77
2021/05/31 06:23:49;;;;;;;5.72;4.95;;;;;;;;;;5071470;28;20172;-77
2021/05/31 06:26:15;;;;;;;7.33;5.03;;;;;;;;;;5057423;28;20165;-75
2021/05/31 06:28:42;;;;;;;6.50;5.03;;;;;;;;;;5070730;28;20975;-76
2021/05/31 06:31:08;;;;;;;6.73;4.07;;;;;;;;;;5061595;28;20996;-79
2021/05/31 06:33:34;;;;;;;4.43;3.10;;;;;;;;;;5058070;28;20455;-76
2021/05/31 06:36:04;;;;;;;3.70;3.10;;;;;;;;;;5074020;28;20915;-77
2021/05/31 06:38:32;;;;;;;5.90;3.33;;;;;;;;;;5052724;28;20415;-79
2021/05/31 06:40:58;;;;;;;6.47;3.03;;;;;;;;;;5066707;28;20534;-81
2021/05/31 06:43:24;;;;;;;3.60;3.13;;;;;;;;;;5052379;28;20404;-75
2021/05/31 06:45:50;;;;;;;5.60;3.20;;;;;;;;;;5070917;28;20860;-80
2021/05/31 06:48:16;;;;;;;4.70;3.27;;;;;;;;;;5068921;28;20788;-78
2021/05/31 06:50:44;;;;;;;3.80;3.00;;;;;;;;;;5064170;28;20465;-76
2021/05/31 06:53:10;;;;;;;6.00;3.00;;;;;;;;;;5075747;28;20410;-78
2021/05/31 06:55:36;;;;;;;4.37;3.00;;;;;;;;;;5071637;28;20412;-79
2021/05/31 06:58:03;;;;;;;4.17;3.10;;;;;;;;;;5055949;28;20781;-78
2021/05/31 07:00:29;;;;;;;5.07;3.53;;;;;;;;;;5060158;28;20492;-76
2021/05/31 07:02:56;;;;;;;4.50;3.90;;;;;;;;;;5067449;28;20416;-79
2021/05/31 07:05:22;;;;;;;4.87;3.37;;;;;;;;;;5074023;28;20450;-78
2021/05/31 07:07:48;;;;;;;5.93;3.03;;;;;;;;;;5065383;28;20822;-81
2021/05/31 07:10:15;;;;;;;6.10;3.13;;;;;;;;;;5059064;28;20789;-77
2021/05/31 07:12:42;;;;;;;4.17;3.10;;;;;;;;;;5055215;28;20404;-75
2021/05/31 07:15:11;;;;;;;3.77;3.47;;;;;;;;;;5057638;28;20432;-74
2021/05/31 07:17:37;;;;;;;4.20;3.37;;;;;;;;;;5058688;28;20415;-80
2021/05/31 07:20:06;;;;;;;5.60;3.37;;;;;;;;;;5062347;28;20449;-78
2021/05/31 07:22:32;;;;;;;5.00;3.23;;;;;;;;;;5066879;28;20434;-79
2021/05/31 07:24:58;;;;;;;4.63;3.23;;;;;;;;;;5084017;28;20764;-80
2021/05/31 07:27:24;;;;;;;14.80;3.37;;;;;;;;;;5054862;28;20444;-76
2021/05/31 07:29:51;;;;;;;3.83;3.53;;;;;;;;;;5069236;28;20461;-82
2021/05/31 07:32:17;;;;;;;6.60;3.27;;;;;;;;;;5071320;28;20550;-77
2021/05/31 07:34:43;;;;;;;6.00;3.30;;;;;;;;;;5090083;28;20945;-82
2021/05/31 07:37:10;;;;;;;3.93;2.77;;;;;;;;;;5063252;28;20429;-80
2021/05/31 07:39:36;;;;;;;3.30;3.00;;;;;;;;;;5058210;28;20424;-80
2021/05/31 07:42:02;;;;;;;4.73;3.57;;;;;;;;;;5063659;28;20474;-77
2021/05/31 07:44:28;;;;;;;4.20;3.00;;;;;;;;;;5066898;28;20437;-81
2021/05/31 07:46:54;;;;;;;5.87;3.63;;;;;;;;;;5067558;28;20428;-75
2021/05/31 07:49:20;;;;;;;3.73;3.20;;;;;;;;;;5072711;28;20438;-76
2021/05/31 07:51:47;;;;;;;2.90;2.70;;;;;;;;;;5081105;28;20468;-78
2021/05/31 07:54:15;;;;;;;3.80;3.40;;;;;;;;;;5070444;28;20545;-81
2021/05/31 07:56:41;;;;;;;3.60;3.30;;;;;;;;;;5056788;28;21289;-78
2021/05/31 07:59:07;;;;;;;4.07;3.03;;;;;;;;;;5067968;28;20414;-81
2021/05/31 08:01:36;;;;;;;4.10;3.47;;;;;;;;;;5075469;28;20452;-80
2021/05/31 08:04:06;;;;;;;3.67;3.20;;;;;;;;;;5058681;28;20495;-75
2021/05/31 08:06:33;;;;;;;3.17;2.90;;;;;;;;;;5068832;28;20954;-81
2021/05/31 08:08:59;;;;;;;4.40;3.40;;;;;;;;;;5055100;28;20856;-79
2021/05/31 08:11:25;;;;;;;6.53;2.83;;;;;;;;;;5061568;28;20570;-79
2021/05/31 08:13:51;;;;;;;4.77;3.20;;;;;;;;;;5076825;28;20474;-80
2021/05/31 08:16:18;;;;;;;5.27;3.40;;;;;;;;;;5054552;28;20415;-77
2021/05/31 08:18:45;;;;;;;3.87;3.00;;;;;;;;;;5072804;28;20514;-75
2021/05/31 08:21:11;;;;;;;3.53;2.80;;;;;;;;;;5073952;28;20788;-76
2021/05/31 08:23:38;;;;;;;5.80;3.10;;;;;;;;;;5063234;28;20433;-77
2021/05/31 08:26:04;;;;;;;3.97;2.63;;;;;;;;;;5070211;28;20771;-78
2021/05/31 08:28:30;;;;;;;3.03;2.73;;;;;;;;;;5056895;28;20418;-78
2021/05/31 08:30:56;;;;;;;7.10;2.90;;;;;;;;;;5053885;28;20463;-78
2021/05/31 08:33:22;;;;;;;3.10;2.73;;;;;;;;;;5085778;28;20603;-80
2021/05/31 08:35:48;;;;;;;3.53;2.50;;;;;;;;;;5073532;28;20425;-80
2021/05/31 08:38:15;;;;;;;4.83;2.53;;;;;;;;;;5066809;28;20511;-80
2021/05/31 08:40:41;;;;;;;8.93;2.90;;;;;;;;;;5058146;28;20475;-80
2021/05/31 08:43:07;;;;;;;4.77;4.17;;;;;;;;;;5054214;28;20439;-76
2021/05/31 08:45:37;;;;;;;3.40;3.10;;;;;;;;;;5076221;28;20430;-78
2021/05/31 08:48:03;;;;;;;3.90;2.40;;;;;;;;;;5057322;28;20478;-73
2021/05/31 08:50:31;;;;;;;2.90;2.60;;;;;;;;;;5058446;28;20554;-74
2021/05/31 08:52:57;;;;;;;3.57;3.00;;;;;;;;;;5083600;28;20790;-78
2021/05/31 08:55:25;;;;;;;4.10;2.90;;;;;;;;;;5074379;28;20419;-75
2021/05/31 08:57:51;;;;;;;3.40;3.10;;;;;;;;;;5058294;28;20931;-74
2021/05/31 09:00:18;;;;;;;4.70;2.80;;;;;;;;;;5068348;28;20477;-75
2021/05/31 09:02:44;;;;;;;3.57;2.60;;;;;;;;;;5052991;28;20422;-75
2021/05/31 09:05:11;;;;;;;3.20;2.30;;;;;;;;;;5058679;28;20481;-74
2021/05/31 09:07:37;;;;;;;2.93;2.63;;;;;;;;;;5078483;28;20434;-78
2021/05/31 09:10:04;;;;;;;4.97;3.03;;;;;;;;;;5057433;28;20451;-79
2021/05/31 09:12:32;;;;;;;3.83;3.10;;;;;;;;;;5056069;28;20454;-78
2021/05/31 09:15:01;;;;;;;4.13;3.73;;;;;;;;;;5053146;28;20418;-79
2021/05/31 09:17:28;;;;;;;3.73;3.43;;;;;;;;;;5053203;28;20412;-79
2021/05/31 09:19:54;;;;;;;3.53;3.23;;;;;;;;;;5059019;28;20454;-78
2021/05/31 09:22:21;;;;;;;3.63;2.80;;;;;;;;;;5058276;28;20520;-75
2021/05/31 09:25:04;;;;;;;3.37;3.07;;;;;;;;;;5063755;28;20435;-78
2021/05/31 09:27:31;;;;;;;3.77;3.47;;;;;;;;;;5071043;28;20517;-76
2021/05/31 09:30:01;;;;;;;3.23;2.93;;;;;;;;;;5063568;28;20808;-83
2021/05/31 09:32:27;;;;;;;3.33;3.03;;;;;;;;;;5049496;28;20515;-82
2021/05/31 09:35:09;;;;;;;6.50;3.20;;;;;;;;;;5064803;28;20462;-79
2021/05/31 09:37:55;;;;;;;3.17;2.97;;;;;;;;;;5049543;28;20896;-77
2021/05/31 09:40:23;;;;;;;4.37;3.50;;;;;;;;;;5075208;28;20450;-77
2021/05/31 09:42:50;;;;;;;4.13;3.50;;;;;;;;;;5049417;28;20418;-80
2021/05/31 09:45:16;;;;;;;3.37;3.07;;;;;;;;;;5053590;28;20514;-81
2021/05/31 09:47:43;;;;;;;5.43;3.53;;;;;;;;;;5069421;28;20399;-81
2021/05/31 09:50:09;;;;;;;5.70;3.30;;;;;;;;;;5080283;28;20432;-77
2021/05/31 09:52:35;;;;;;;3.50;3.00;;;;;;;;;;5068334;28;20520;-81
2021/05/31 09:55:06;;;;;;;4.90;3.57;;;;;;;;;;5062110;28;20838;-77
2021/05/31 09:57:35;;;;;;;4.20;3.90;;;;;;;;;;5049024;28;20889;-80
2021/05/31 10:00:13;;;;;;;4.23;3.67;;;;;;;;;;5078523;28;21006;-79
2021/05/31 10:02:50;;;;;;;3.97;3.67;;;;;;;;;;5055911;28;20465;-79
2021/05/31 10:10:17;;;;;;;3.10;2.90;;;;;;;;;;5060723;28;20451;-75
2021/05/31 10:12:43;;;;;;;3.43;3.13;;;;;;;;;;5049216;28;20416;-79
2021/05/31 10:15:11;;;;;;;4.07;3.47;;;;;;;;;;5066698;28;20427;-80
2021/05/31 10:17:38;;;;;;;3.50;3.20;;;;;;;;;;5066685;28;20441;-79
2021/05/31 10:20:05;;;;;;;3.90;3.60;;;;;;;;;;5053704;28;20444;-78
2021/05/31 10:22:36;;;;;;;3.37;3.07;;;;;;;;;;5070975;28;20434;-75
2021/05/31 10:25:04;;;;;;;5.00;3.23;;;;;;;;;;5055003;28;20437;-79
2021/05/31 10:27:31;;;;;;;6.50;6.10;;;;;;;;;;5061566;28;20788;-75
2021/05/31 10:29:58;;;;;;;8.87;8.30;;;;;;;;;;5063157;28;20527;-80
2021/05/31 10:32:25;;;;;;;3.27;3.03;;;;;;;;;;5093165;28;20823;-79
2021/05/31 10:34:53;;;;;;;3.57;3.27;;;;;;;;;;5061664;28;20417;-78
2021/05/31 10:37:25;;;;;;;3.63;3.00;;;;;;;;;;5080460;28;20448;-77
2021/05/31 10:39:57;;;;;;;3.80;3.50;;;;;;;;;;5071632;28;20484;-78
2021/05/31 10:42:24;;;;;;;3.30;2.87;;;;;;;;;;5060186;28;20419;-78
2021/05/31 10:44:50;;;;;;;3.40;3.10;;;;;;;;;;5064565;28;20415;-76
2021/05/31 10:47:24;;;;;;;3.40;3.10;;;;;;;;;;5058032;28;20948;-78
2021/05/31 10:49:57;;;;;;;3.73;3.10;;;;;;;;;;5063401;28;20439;-78
2021/05/31 10:52:24;;;;;;;3.27;2.97;;;;;;;;;;5054544;28;20463;-76
2021/05/31 10:54:50;;;;;;;3.70;3.20;;;;;;;;;;5052168;28;20469;-77
2021/05/31 10:57:16;;;;;;;3.47;3.17;;;;;;;;;;5082562;28;20418;-79
2021/05/31 10:59:46;;;;;;;3.60;3.20;;;;;;;;;;5062090;28;20792;-76
2021/05/31 11:02:27;;;;;;;3.70;3.40;;;;;;;;;;5067987;28;20428;-81
2021/05/31 11:04:53;;;;;;;3.10;2.80;;;;;;;;;;5052209;28;20568;-78
2021/05/31 11:07:28;;;;;;;3.40;2.90;;;;;;;;;;5062586;28;20488;-80
2021/05/31 11:09:54;;;;;;;2.90;2.67;;;;;;;;;;5052680;28;20518;-78
2021/05/31 11:12:32;;;;;;;3.30;3.00;;;;;;;;;;5077353;28;20473;-76
2021/05/31 11:15:06;;;;;;;7.33;3.23;;;;;;;;;;5062418;28;20415;-81
2021/05/31 11:17:32;;;;;;;3.23;2.90;;;;;;;;;;5056809;28;20836;-79
2021/05/31 11:19:58;;;;;;;3.20;2.83;;;;;;;;;;5067687;28;20436;-79
2021/05/31 11:22:24;;;;;;;2.97;2.77;;;;;;;;;;5062806;28;20411;-79
2021/05/31 11:24:51;;;;;;;3.20;2.90;;;;;;;;;;5068109;28;20458;-79
2021/05/31 11:27:17;;;;;;;3.60;3.30;;;;;;;;;;5050491;28;20446;-81
2021/05/31 11:29:43;;;;;;;3.33;3.07;;;;;;;;;;5066450;28;20463;-81
2021/05/31 11:32:11;;;;;;;3.30;2.63;;;;;;;;;;5051308;28;20516;-78
2021/05/31 11:34:38;;;;;;;3.93;3.50;;;;;;;;;;5064829;28;20427;-81
2021/05/31 11:37:04;;;;;;;3.13;2.93;;;;;;;;;;5052027;28;20481;-78
2021/05/31 11:39:32;;;;;;;3.00;2.73;;;;;;;;;;5072003;28;20504;-76
2021/05/31 11:41:59;;;;;;;3.37;3.07;;;;;;;;;;5061399;28;20412;-80
2021/05/31 11:44:29;;;;;;;5.30;4.20;;;;;;;;;;5058796;28;20442;-79
2021/05/31 11:47:02;;;;;;;3.40;3.20;;;;;;;;;;5051754;28;20919;-81
2021/05/31 11:49:29;;;;;;;3.33;3.10;;;;;;;;;;5067616;28;20439;-78
2021/05/31 11:51:59;;;;;;;3.00;2.80;;;;;;;;;;5065538;28;20450;-75
2021/05/31 11:54:25;;;;;;;3.20;2.90;;;;;;;;;;5064306;28;20430;-79
2021/05/31 11:56:51;;;;;;;3.43;3.13;;;;;;;;;;5071920;28;20414;-73
2021/05/31 11:59:18;;;;;;;3.47;3.17;;;;;;;;;;5053147;28;20944;-78
2021/05/31 12:01:51;;;;;;;3.67;3.37;;;;;;;;;;5049936;28;20481;-76
2021/05/31 12:04:17;;;;;;;3.73;3.37;;;;;;;;;;5067359;28;20973;-82
2021/05/31 12:06:44;;;;;;;3.57;3.23;;;;;;;;;;5064626;28;20910;-75
2021/05/31 12:09:17;;;;;;;11.70;11.00;;;;;;;;;;5057941;28;20480;-78
2021/05/31 12:11:43;;;;;;;3.20;2.90;;;;;;;;;;5054967;28;20581;-78
2021/05/31 12:14:11;;;;;;;3.70;3.40;;;;;;;;;;5057441;28;20776;-77
2021/05/31 12:16:37;;;;;;;3.20;2.97;;;;;;;;;;5069378;28;20987;-78
2021/05/31 12:19:14;;;;;;;3.30;3.10;;;;;;;;;;5083557;28;20490;-75
2021/05/31 12:21:41;;;;;;;3.30;3.10;;;;;;;;;;5070865;28;21285;-77
2021/05/31 12:24:08;;;;;;;3.50;3.20;;;;;;;;;;5068883;28;20465;-77
2021/05/31 12:26:34;;;;;;;5.40;3.10;;;;;;;;;;5051521;28;20419;-77
2021/05/31 12:29:00;;;;;;;3.60;3.30;;;;;;;;;;5060148;28;20415;-79
2021/05/31 12:31:33;;;;;;;3.00;2.80;;;;;;;;;;5055763;28;20556;-80
2021/05/31 12:33:59;;;;;;;3.30;3.10;;;;;;;;;;5059985;28;20827;-79
2021/05/31 12:36:28;;;;;;;3.50;3.20;;;;;;;;;;5065080;28;20453;-80
2021/05/31 12:38:54;;;;;;;5.80;3.57;;;;;;;;;;5056889;28;20428;-79
2021/05/31 12:41:20;;;;;;;3.73;3.43;;;;;;;;;;5057150;28;20451;-80
2021/05/31 12:43:46;;;;;;;3.70;2.90;;;;;;;;;;5050018;28;20443;-78
2021/05/31 12:46:16;;;;;;;3.60;3.30;;;;;;;;;;5055844;28;20442;-77
2021/05/31 12:48:42;;;;;;;5.60;3.30;;;;;;;;;;5049851;28;20416;-83
2021/05/31 12:51:14;;;;;;;3.40;3.10;;;;;;;;;;5053889;28;20467;-77
2021/05/31 12:53:41;;;;;;;4.00;3.70;;;;;;;;;;5050770;28;20418;-80
2021/05/31 12:56:07;;;;;;;4.70;4.20;;;;;;;;;;5061821;28;20423;-75
2021/05/31 12:58:33;;;;;;;3.77;3.47;;;;;;;;;;5056286;28;20781;-79
2021/05/31 13:01:00;;;;;;;3.87;3.57;;;;;;;;;;5064894;28;20453;-78
2021/05/31 13:03:32;;;;;;;4.20;3.70;;;;;;;;;;5062522;28;20488;-78
2021/05/31 13:05:59;;;;;;;4.53;4.13;;;;;;;;;;5068871;28;20521;-76
2021/05/31 13:08:25;;;;;;;4.40;4.10;;;;;;;;;;5055132;28;20771;-80
2021/05/31 13:10:53;;;;;;;4.50;4.10;;;;;;;;;;5065407;28;20512;-80
2021/05/31 13:13:20;;;;;;;4.30;4.00;;;;;;;;;;5069402;28;20422;-75
2021/05/31 13:15:46;;;;;;;5.70;4.77;;;;;;;;;;5063606;28;20418;-78
2021/05/31 13:18:21;;;;;;;5.00;4.10;;;;;;;;;;5066066;28;20425;-77
2021/05/31 13:20:52;;;;;;;4.33;3.93;;;;;;;;;;5060055;28;20532;-77
2021/05/31 13:23:19;;;;;;;4.73;4.33;;;;;;;;;;5065319;28;20943;-77
2021/05/31 13:25:47;;;;;;;4.37;4.00;;;;;;;;;;5049480;28;20418;-77
2021/05/31 13:28:18;;;;;;;4.43;4.10;;;;;;;;;;5061501;28;20464;-77
2021/05/31 13:30:46;;;;;;;4.30;3.90;;;;;;;;;;5085440;28;20472;-81
2021/05/31 13:33:12;;;;;;;4.43;4.13;;;;;;;;;;5055486;28;20419;-79
2021/05/31 13:35:40;;;;;;;4.50;4.20;;;;;;;;;;5065883;28;20967;-79
2021/05/31 13:38:06;;;;;;;4.60;4.30;;;;;;;;;;5069834;28;20775;-80
2021/05/31 13:40:35;;;;;;;5.23;4.73;;;;;;;;;;5088062;28;20587;-78
2021/05/31 13:43:07;;;;;;;5.60;5.10;;;;;;;;;;5052894;28;20423;-81
2021/05/31 13:45:34;;;;;;;4.60;4.20;;;;;;;;;;5049756;28;21153;-79
2021/05/31 13:48:00;;;;;;;4.97;4.60;;;;;;;;;;5049176;28;20411;-79
2021/05/31 13:50:27;;;;;;;4.90;4.40;;;;;;;;;;5049317;28;20791;-79
2021/05/31 13:52:54;;;;;;;4.80;4.40;;;;;;;;;;5060991;28;20455;-81
2021/05/31 13:55:21;;;;;;;4.27;3.97;;;;;;;;;;5053421;28;20411;-78
2021/05/31 13:57:48;;;;;;;4.50;4.20;;;;;;;;;;5075530;28;20450;-79
2021/05/31 14:00:15;;;;;;;4.93;4.53;;;;;;;;;;5054477;28;20431;-82
2021/05/31 14:02:41;;;;;;;9.77;8.97;;;;;;;;;;5069174;28;20431;-78
2021/05/31 14:05:07;;;;;;;6.90;6.30;;;;;;;;;;5052893;28;20465;-83
2021/05/31 14:07:34;;;;;;;6.10;5.13;;;;;;;;;;5078303;28;20429;-82
2021/05/31 14:10:00;;;;;;;5.33;4.60;;;;;;;;;;5068534;28;20453;-80
2021/05/31 14:12:27;;;;;;;5.13;4.63;;;;;;;;;;5072858;28;20516;-78
2021/05/31 14:14:53;;;;;;;6.77;5.97;;;;;;;;;;5070439;28;20454;-76
2021/05/31 14:17:19;;;;;;;6.40;5.90;;;;;;;;;;5079795;28;20430;-77
2021/05/31 14:19:45;;;;;;;6.60;6.00;;;;;;;;;;5082008;28;20520;-82
2021/05/31 14:22:12;;;;;;;5.50;5.10;;;;;;;;;;5082222;28;20491;-82
2021/05/31 14:24:38;;;;;;;6.70;4.97;;;;;;;;;;5063524;28;20418;-79
2021/05/31 14:27:07;;;;;;;4.40;4.00;;;;;;;;;;5053351;28;20815;-77
2021/05/31 14:29:33;;;;;;;5.10;4.70;;;;;;;;;;5060277;28;20438;-76
2021/05/31 14:31:59;;;;;;;5.20;4.40;;;;;;;;;;5061507;28;20458;-80
2021/05/31 14:34:25;;;;;;;5.50;5.10;;;;;;;;;;5070275;28;20453;-79
2021/05/31 14:36:51;;;;;;;5.03;4.63;;;;;;;;;;5065593;28;20875;-78
2021/05/31 14:39:17;;;;;;;4.90;4.50;;;;;;;;;;5062591;28;20414;-76
2021/05/31 14:41:43;;;;;;;5.70;4.27;;;;;;;;;;5052408;28;20964;-81
2021/05/31 14:44:09;;;;;;;5.00;4.60;;;;;;;;;;5066607;28;20467;-78
2021/05/31 14:46:35;;;;;;;4.87;4.47;;;;;;;;;;5070072;28;20969;-76
2021/05/31 14:49:01;;;;;;;4.83;4.40;;;;;;;;;;5069246;28;20788;-75
2021/05/31 14:51:27;;;;;;;4.60;4.30;;;;;;;;;;5059939;28;20466;-76